sensor_id;sensor_type;location;lat;lon;timestamp;pressure;altitude;pressure_sealevel;temperature;humidity
78800;BME280;68148;55.328;86.106;2023-12-28T00:01:35;99580.31;;;-4.44;96.09
78800;BME280;68148;55.328;86.106;2023-12-28T00:04:01;99589.81;;;-4.45;96.40
78800;BME280;68148;55.328;86.106;2023-12-28T00:06:27;99584.09;;;-4.50;96.04
78800;BME280;68148;55.328;86.106;2023-12-28T00:08:53;99574.91;;;-4.54;96.64
78800;BME280;68148;55.328;86.106;2023-12-28T00:11:18;99566.91;;;-4.49;96.28
78800;BME280;68148;55.328;86.106;2023-12-28T00:13:44;99576.28;;;-4.48;96.53
78800;BME280;68148;55.328;86.106;2023-12-28T00:16:11;99573.72;;;-4.48;96.80
78800;BME280;68148;55.328;86.106;2023-12-28T00:18:36;99568.63;;;-4.50;96.39
78800;BME280;68148;55.328;86.106;2023-12-28T00:21:02;99565.06;;;-4.47;96.62
78800;BME280;68148;55.328;86.106;2023-12-28T00:23:28;99551.47;;;-4.49;96.18
78800;BME280;68148;55.328;86.106;2023-12-28T00:25:54;99546.75;;;-4.43;95.90
78800;BME280;68148;55.328;86.106;2023-12-28T00:28:19;99538.91;;;-4.41;95.69
78800;BME280;68148;55.328;86.106;2023-12-28T00:30:45;99544.81;;;-4.39;95.25
78800;BME280;68148;55.328;86.106;2023-12-28T00:33:11;99553.16;;;-4.36;96.21
78800;BME280;68148;55.328;86.106;2023-12-28T00:35:37;99561.09;;;-4.39;95.84
78800;BME280;68148;55.328;86.106;2023-12-28T00:38:03;99580.13;;;-4.41;96.39
78800;BME280;68148;55.328;86.106;2023-12-28T00:40:29;99574.25;;;-4.43;95.65
78800;BME280;68148;55.328;86.106;2023-12-28T00:42:56;99570.03;;;-4.59;95.75
78800;BME280;68148;55.328;86.106;2023-12-28T00:45:22;99585.47;;;-4.59;96.34
78800;BME280;68148;55.328;86.106;2023-12-28T00:47:48;99611.72;;;-4.66;95.99
78800;BME280;68148;55.328;86.106;2023-12-28T00:50:14;99632.59;;;-4.71;96.14
78800;BME280;68148;55.328;86.106;2023-12-28T00:52:39;99611.34;;;-4.74;96.31
78800;BME280;68148;55.328;86.106;2023-12-28T00:55:05;99599.94;;;-4.85;97.17
78800;BME280;68148;55.328;86.106;2023-12-28T00:57:42;99612.81;;;-4.85;97.39
78800;BME280;68148;55.328;86.106;2023-12-28T01:00:08;99604.09;;;-4.82;97.68
78800;BME280;68148;55.328;86.106;2023-12-28T01:02:34;99604.72;;;-4.79;96.97
78800;BME280;68148;55.328;86.106;2023-12-28T01:05:04;99610.31;;;-4.72;97.07
78800;BME280;68148;55.328;86.106;2023-12-28T01:07:30;99598.84;;;-4.66;96.97
78800;BME280;68148;55.328;86.106;2023-12-28T01:09:55;99610.41;;;-4.59;96.80
78800;BME280;68148;55.328;86.106;2023-12-28T01:12:21;99611.69;;;-4.52;96.63
78800;BME280;68148;55.328;86.106;2023-12-28T01:14:47;99604.34;;;-4.44;97.56
78800;BME280;68148;55.328;86.106;2023-12-28T01:17:26;99615.28;;;-4.40;97.39
78800;BME280;68148;55.328;86.106;2023-12-28T01:19:52;99603.50;;;-4.44;97.39
78800;BME280;68148;55.328;86.106;2023-12-28T01:22:21;99600.56;;;-4.53;96.56
78800;BME280;68148;55.328;86.106;2023-12-28T01:24:47;99597.19;;;-4.53;97.33
78800;BME280;68148;55.328;86.106;2023-12-28T01:27:12;99590.91;;;-4.49;97.07
78800;BME280;68148;55.328;86.106;2023-12-28T01:29:38;99591.34;;;-4.42;97.58
78800;BME280;68148;55.328;86.106;2023-12-28T01:32:04;99589.13;;;-4.34;96.92
78800;BME280;68148;55.328;86.106;2023-12-28T01:34:30;99585.69;;;-4.20;97.43
78800;BME280;68148;55.328;86.106;2023-12-28T01:37:01;99583.22;;;-4.22;95.69
78800;BME280;68148;55.328;86.106;2023-12-28T01:39:27;99582.53;;;-4.11;96.31
78800;BME280;68148;55.328;86.106;2023-12-28T01:41:53;99577.47;;;-4.13;95.96
78800;BME280;68148;55.328;86.106;2023-12-28T01:44:18;99579.94;;;-4.11;94.62
78800;BME280;68148;55.328;86.106;2023-12-28T01:46:45;99575.25;;;-4.05;95.66
78800;BME280;68148;55.328;86.106;2023-12-28T01:49:12;99574.13;;;-4.00;95.45
78800;BME280;68148;55.328;86.106;2023-12-28T01:51:39;99579.38;;;-4.02;94.87
78800;BME280;68148;55.328;86.106;2023-12-28T01:54:05;99577.41;;;-3.98;94.90
78800;BME280;68148;55.328;86.106;2023-12-28T01:56:31;99578.06;;;-3.95;93.75
78800;BME280;68148;55.328;86.106;2023-12-28T01:58:57;99572.03;;;-4.08;93.40
78800;BME280;68148;55.328;86.106;2023-12-28T02:01:23;99568.78;;;-3.97;93.38
78800;BME280;68148;55.328;86.106;2023-12-28T02:03:49;99563.31;;;-3.93;93.62
78800;BME280;68148;55.328;86.106;2023-12-28T02:06:15;99573.53;;;-4.18;92.69
78800;BME280;68148;55.328;86.106;2023-12-28T02:08:41;99579.53;;;-4.18;92.85
78800;BME280;68148;55.328;86.106;2023-12-28T02:11:06;99565.41;;;-4.12;92.98
78800;BME280;68148;55.328;86.106;2023-12-28T02:13:32;99576.25;;;-4.07;92.54
78800;BME280;68148;55.328;86.106;2023-12-28T02:16:03;99585.50;;;-4.17;93.20
78800;BME280;68148;55.328;86.106;2023-12-28T02:18:44;99584.44;;;-4.28;92.98
78800;BME280;68148;55.328;86.106;2023-12-28T02:21:13;99598.34;;;-4.44;94.26
78800;BME280;68148;55.328;86.106;2023-12-28T02:23:38;99584.88;;;-4.62;94.83
78800;BME280;68148;55.328;86.106;2023-12-28T02:26:04;99595.16;;;-4.62;95.79
78800;BME280;68148;55.328;86.106;2023-12-28T02:28:31;99583.66;;;-4.85;97.39
78800;BME280;68148;55.328;86.106;2023-12-28T02:30:59;99581.28;;;-4.88;98.48
78800;BME280;68148;55.328;86.106;2023-12-28T02:33:38;99584.50;;;-4.85;99.45
78800;BME280;68148;55.328;86.106;2023-12-28T02:36:10;99580.63;;;-4.78;99.71
78800;BME280;68148;55.328;86.106;2023-12-28T02:38:38;99586.16;;;-4.69;99.90
78800;BME280;68148;55.328;86.106;2023-12-28T02:41:04;99587.16;;;-4.58;100.00
78800;BME280;68148;55.328;86.106;2023-12-28T02:43:30;99582.28;;;-4.62;100.00
78800;BME280;68148;55.328;86.106;2023-12-28T02:45:56;99578.53;;;-4.71;100.00
78800;BME280;68148;55.328;86.106;2023-12-28T02:48:23;99584.97;;;-4.78;100.00
78800;BME280;68148;55.328;86.106;2023-12-28T02:50:49;99579.28;;;-4.83;100.00
78800;BME280;68148;55.328;86.106;2023-12-28T02:53:15;99573.81;;;-4.93;100.00
78800;BME280;68148;55.328;86.106;2023-12-28T02:55:41;99571.47;;;-4.96;100.00
78800;BME280;68148;55.328;86.106;2023-12-28T02:58:07;99577.03;;;-4.89;100.00
78800;BME280;68148;55.328;86.106;2023-12-28T03:00:33;99585.44;;;-5.00;100.00
78800;BME280;68148;55.328;86.106;2023-12-28T03:02:58;99587.06;;;-4.99;100.00
78800;BME280;68148;55.328;86.106;2023-12-28T03:05:24;99593.31;;;-4.89;100.00
78800;BME280;68148;55.328;86.106;2023-12-28T03:07:50;99585.78;;;-4.78;100.00
78800;BME280;68148;55.328;86.106;2023-12-28T03:10:16;99584.88;;;-4.62;100.00
78800;BME280;68148;55.328;86.106;2023-12-28T03:12:42;99581.63;;;-4.51;100.00
78800;BME280;68148;55.328;86.106;2023-12-28T03:15:08;99589.13;;;-4.34;100.00
78800;BME280;68148;55.328;86.106;2023-12-28T03:17:36;99590.88;;;-4.35;100.00
78800;BME280;68148;55.328;86.106;2023-12-28T03:20:02;99587.28;;;-4.32;100.00
78800;BME280;68148;55.328;86.106;2023-12-28T03:22:28;99594.00;;;-4.30;100.00
78800;BME280;68148;55.328;86.106;2023-12-28T03:24:54;99585.69;;;-4.20;100.00
78800;BME280;68148;55.328;86.106;2023-12-28T03:27:20;99592.53;;;-4.34;100.00
78800;BME280;68148;55.328;86.106;2023-12-28T03:29:46;99587.47;;;-4.35;100.00
78800;BME280;68148;55.328;86.106;2023-12-28T03:32:13;99597.13;;;-4.39;100.00
78800;BME280;68148;55.328;86.106;2023-12-28T03:34:39;99597.97;;;-4.38;100.00
78800;BME280;68148;55.328;86.106;2023-12-28T03:37:05;99597.94;;;-4.24;100.00
78800;BME280;68148;55.328;86.106;2023-12-28T03:39:31;99599.44;;;-4.34;100.00
78800;BME280;68148;55.328;86.106;2023-12-28T03:41:57;99604.16;;;-4.41;100.00
78800;BME280;68148;55.328;86.106;2023-12-28T03:44:23;99611.22;;;-4.44;100.00
78800;BME280;68148;55.328;86.106;2023-12-28T03:46:50;99618.31;;;-4.48;100.00
78800;BME280;68148;55.328;86.106;2023-12-28T03:49:19;99625.00;;;-4.45;100.00
78800;BME280;68148;55.328;86.106;2023-12-28T03:51:45;99615.56;;;-4.45;100.00
78800;BME280;68148;55.328;86.106;2023-12-28T03:54:11;99622.44;;;-4.45;100.00
78800;BME280;68148;55.328;86.106;2023-12-28T03:56:38;99621.81;;;-4.49;100.00
78800;BME280;68148;55.328;86.106;2023-12-28T03:59:04;99621.25;;;-4.40;100.00
78800;BME280;68148;55.328;86.106;2023-12-28T04:01:29;99619.78;;;-4.44;100.00
78800;BME280;68148;55.328;86.106;2023-12-28T04:03:55;99622.44;;;-4.45;100.00
78800;BME280;68148;55.328;86.106;2023-12-28T04:06:21;99624.94;;;-4.44;100.00
78800;BME280;68148;55.328;86.106;2023-12-28T04:08:48;99625.28;;;-4.50;100.00
78800;BME280;68148;55.328;86.106;2023-12-28T04:11:13;99626.69;;;-4.59;100.00
78800;BME280;68148;55.328;86.106;2023-12-28T04:13:39;99630.94;;;-4.58;100.00
78800;BME280;68148;55.328;86.106;2023-12-28T04:16:06;99639.75;;;-4.47;100.00
78800;BME280;68148;55.328;86.106;2023-12-28T04:18:32;99631.28;;;-4.35;100.00
78800;BME280;68148;55.328;86.106;2023-12-28T04:21:01;99628.75;;;-4.22;100.00
78800;BME280;68148;55.328;86.106;2023-12-28T04:23:36;99624.31;;;-4.06;100.00
78800;BME280;68148;55.328;86.106;2023-12-28T04:26:03;99624.72;;;-3.85;100.00
78800;BME280;68148;55.328;86.106;2023-12-28T04:28:30;99631.56;;;-3.71;100.00
78800;BME280;68148;55.328;86.106;2023-12-28T04:30:55;99632.13;;;-3.54;100.00
78800;BME280;68148;55.328;86.106;2023-12-28T04:33:22;99633.59;;;-3.37;100.00
78800;BME280;68148;55.328;86.106;2023-12-28T04:35:48;99639.19;;;-3.17;100.00
78800;BME280;68148;55.328;86.106;2023-12-28T04:38:13;99641.38;;;-3.11;100.00
78800;BME280;68148;55.328;86.106;2023-12-28T04:40:39;99647.38;;;-2.98;100.00
78800;BME280;68148;55.328;86.106;2023-12-28T04:43:10;99661.25;;;-2.86;100.00
78800;BME280;68148;55.328;86.106;2023-12-28T04:45:36;99658.75;;;-2.75;100.00
78800;BME280;68148;55.328;86.106;2023-12-28T04:48:02;99665.66;;;-2.63;100.00
78800;BME280;68148;55.328;86.106;2023-12-28T04:50:28;99668.34;;;-2.52;100.00
78800;BME280;68148;55.328;86.106;2023-12-28T04:52:54;99662.06;;;-2.60;100.00
78800;BME280;68148;55.328;86.106;2023-12-28T04:55:20;99661.94;;;-2.71;100.00
78800;BME280;68148;55.328;86.106;2023-12-28T04:57:46;99658.22;;;-2.67;100.00
78800;BME280;68148;55.328;86.106;2023-12-28T05:00:12;99661.00;;;-2.70;100.00
78800;BME280;68148;55.328;86.106;2023-12-28T05:02:38;99665.47;;;-2.72;100.00
78800;BME280;68148;55.328;86.106;2023-12-28T05:05:04;99660.09;;;-2.69;100.00
78800;BME280;68148;55.328;86.106;2023-12-28T05:07:30;99667.72;;;-2.55;100.00
78800;BME280;68148;55.328;86.106;2023-12-28T05:09:56;99666.78;;;-2.41;100.00
78800;BME280;68148;55.328;86.106;2023-12-28T05:12:22;99671.72;;;-2.25;100.00
78800;BME280;68148;55.328;86.106;2023-12-28T05:14:48;99681.13;;;-2.24;100.00
78800;BME280;68148;55.328;86.106;2023-12-28T05:17:13;99670.38;;;-2.18;100.00
78800;BME280;68148;55.328;86.106;2023-12-28T05:19:39;99677.19;;;-2.17;100.00
78800;BME280;68148;55.328;86.106;2023-12-28T05:22:05;99678.53;;;-2.24;100.00
78800;BME280;68148;55.328;86.106;2023-12-28T05:24:31;99682.56;;;-2.20;100.00
78800;BME280;68148;55.328;86.106;2023-12-28T05:26:57;99681.75;;;-2.21;100.00
78800;BME280;68148;55.328;86.106;2023-12-28T05:29:22;99686.72;;;-2.18;100.00
78800;BME280;68148;55.328;86.106;2023-12-28T05:31:48;99687.22;;;-2.13;100.00
78800;BME280;68148;55.328;86.106;2023-12-28T05:34:14;99697.25;;;-2.21;100.00
78800;BME280;68148;55.328;86.106;2023-12-28T05:36:39;99691.56;;;-2.13;100.00
78800;BME280;68148;55.328;86.106;2023-12-28T05:39:05;99696.91;;;-2.04;100.00
78800;BME280;68148;55.328;86.106;2023-12-28T05:41:31;99700.63;;;-1.95;100.00
78800;BME280;68148;55.328;86.106;2023-12-28T05:43:57;99697.59;;;-1.89;100.00
78800;BME280;68148;55.328;86.106;2023-12-28T05:46:23;99693.72;;;-1.70;100.00
78800;BME280;68148;55.328;86.106;2023-12-28T05:48:49;99699.13;;;-1.49;100.00
78800;BME280;68148;55.328;86.106;2023-12-28T05:51:14;99710.72;;;-1.31;100.00
78800;BME280;68148;55.328;86.106;2023-12-28T05:53:40;99707.59;;;-1.12;100.00
78800;BME280;68148;55.328;86.106;2023-12-28T05:56:06;99711.34;;;-0.92;100.00
78800;BME280;68148;55.328;86.106;2023-12-28T05:58:32;99711.13;;;-0.78;100.00
78800;BME280;68148;55.328;86.106;2023-12-28T06:00:58;99720.22;;;-0.61;100.00
78800;BME280;68148;55.328;86.106;2023-12-28T06:03:23;99725.44;;;-0.50;100.00
78800;BME280;68148;55.328;86.106;2023-12-28T06:05:49;99723.44;;;-0.35;100.00
78800;BME280;68148;55.328;86.106;2023-12-28T06:08:15;99726.88;;;-0.23;100.00
78800;BME280;68148;55.328;86.106;2023-12-28T06:10:41;99731.94;;;-0.11;100.00
78800;BME280;68148;55.328;86.106;2023-12-28T06:13:07;99736.53;;;-0.03;100.00
78800;BME280;68148;55.328;86.106;2023-12-28T06:15:33;99743.59;;;0.06;100.00
78800;BME280;68148;55.328;86.106;2023-12-28T06:17:58;99748.22;;;0.14;100.00
78800;BME280;68148;55.328;86.106;2023-12-28T06:20:24;99743.47;;;0.19;100.00
78800;BME280;68148;55.328;86.106;2023-12-28T06:22:52;99744.66;;;0.26;100.00
78800;BME280;68148;55.328;86.106;2023-12-28T06:25:19;99751.81;;;0.34;100.00
78800;BME280;68148;55.328;86.106;2023-12-28T06:27:44;99757.59;;;0.37;100.00
78800;BME280;68148;55.328;86.106;2023-12-28T06:30:10;99757.59;;;0.37;100.00
78800;BME280;68148;55.328;86.106;2023-12-28T06:32:36;99767.28;;;0.35;100.00
78800;BME280;68148;55.328;86.106;2023-12-28T06:35:02;99765.47;;;0.47;100.00
78800;BME280;68148;55.328;86.106;2023-12-28T06:37:29;99772.81;;;0.53;100.00
78800;BME280;68148;55.328;86.106;2023-12-28T06:39:54;99777.13;;;0.64;100.00
78800;BME280;68148;55.328;86.106;2023-12-28T06:42:20;99776.31;;;0.63;100.00
78800;BME280;68148;55.328;86.106;2023-12-28T06:44:46;99779.41;;;0.57;100.00
78800;BME280;68148;55.328;86.106;2023-12-28T06:47:11;99785.06;;;0.62;100.00
78800;BME280;68148;55.328;86.106;2023-12-28T06:49:37;99793.81;;;0.61;100.00
78800;BME280;68148;55.328;86.106;2023-12-28T06:52:03;99793.53;;;0.75;100.00
78800;BME280;68148;55.328;86.106;2023-12-28T06:54:29;99796.56;;;0.81;100.00
78800;BME280;68148;55.328;86.106;2023-12-28T06:56:55;99800.94;;;0.80;100.00
78800;BME280;68148;55.328;86.106;2023-12-28T06:59:20;99806.72;;;0.84;100.00
78800;BME280;68148;55.328;86.106;2023-12-28T07:01:46;99807.31;;;0.87;100.00
78800;BME280;68148;55.328;86.106;2023-12-28T07:04:12;99808.59;;;0.93;100.00
78800;BME280;68148;55.328;86.106;2023-12-28T07:06:38;99807.41;;;0.97;100.00
78800;BME280;68148;55.328;86.106;2023-12-28T07:09:04;99809.84;;;0.98;100.00
78800;BME280;68148;55.328;86.106;2023-12-28T07:11:29;99800.88;;;1.03;100.00
78800;BME280;68148;55.328;86.106;2023-12-28T07:13:55;99810.22;;;1.05;100.00
78800;BME280;68148;55.328;86.106;2023-12-28T07:16:21;99809.00;;;1.09;100.00
78800;BME280;68148;55.328;86.106;2023-12-28T07:18:47;99811.38;;;1.12;100.00
78800;BME280;68148;55.328;86.106;2023-12-28T07:21:12;99813.53;;;1.07;100.00
78800;BME280;68148;55.328;86.106;2023-12-28T07:23:38;99817.63;;;1.10;100.00
78800;BME280;68148;55.328;86.106;2023-12-28T07:26:06;99820.22;;;1.10;100.00
78800;BME280;68148;55.328;86.106;2023-12-28T07:28:31;99822.91;;;1.19;100.00
78800;BME280;68148;55.328;86.106;2023-12-28T07:30:57;99830.69;;;1.19;100.00
78800;BME280;68148;55.328;86.106;2023-12-28T07:33:23;99826.84;;;1.14;100.00
78800;BME280;68148;55.328;86.106;2023-12-28T07:35:49;99827.84;;;1.22;100.00
78800;BME280;68148;55.328;86.106;2023-12-28T07:38:15;99833.50;;;1.28;100.00
78800;BME280;68148;55.328;86.106;2023-12-28T07:40:40;99843.66;;;1.31;100.00
78800;BME280;68148;55.328;86.106;2023-12-28T07:43:06;99841.19;;;1.29;100.00
78800;BME280;68148;55.328;86.106;2023-12-28T07:45:32;99851.13;;;1.24;100.00
78800;BME280;68148;55.328;86.106;2023-12-28T07:48:02;99856.47;;;1.22;100.00
78800;BME280;68148;55.328;86.106;2023-12-28T07:50:29;99856.97;;;1.16;100.00
78800;BME280;68148;55.328;86.106;2023-12-28T07:52:54;99859.56;;;1.16;100.00
78800;BME280;68148;55.328;86.106;2023-12-28T07:55:20;99859.06;;;1.11;100.00
78800;BME280;68148;55.328;86.106;2023-12-28T07:57:46;99865.13;;;1.12;100.00
78800;BME280;68148;55.328;86.106;2023-12-28T08:00:12;99853.78;;;1.02;100.00
78800;BME280;68148;55.328;86.106;2023-12-28T08:02:38;99871.66;;;0.95;100.00
78800;BME280;68148;55.328;86.106;2023-12-28T08:05:04;99866.84;;;0.90;100.00
78800;BME280;68148;55.328;86.106;2023-12-28T08:07:30;99864.13;;;0.81;100.00
78800;BME280;68148;55.328;86.106;2023-12-28T08:09:56;99867.66;;;0.80;100.00
78800;BME280;68148;55.328;86.106;2023-12-28T08:12:22;99866.84;;;0.79;100.00
78800;BME280;68148;55.328;86.106;2023-12-28T08:14:47;99867.53;;;0.81;100.00
78800;BME280;68148;55.328;86.106;2023-12-28T08:17:13;99875.81;;;0.86;100.00
78800;BME280;68148;55.328;86.106;2023-12-28T08:19:39;99879.22;;;0.87;100.00
78800;BME280;68148;55.328;86.106;2023-12-28T08:22:05;99883.47;;;0.88;100.00
78800;BME280;68148;55.328;86.106;2023-12-28T08:24:30;99880.66;;;0.91;100.00
78800;BME280;68148;55.328;86.106;2023-12-28T08:26:56;99882.06;;;0.95;100.00
78800;BME280;68148;55.328;86.106;2023-12-28T08:29:22;99888.31;;;1.04;100.00
78800;BME280;68148;55.328;86.106;2023-12-28T08:31:47;99890.41;;;0.98;100.00
78800;BME280;68148;55.328;86.106;2023-12-28T08:34:13;99885.94;;;1.00;100.00
78800;BME280;68148;55.328;86.106;2023-12-28T08:36:39;99896.19;;;1.02;100.00
78800;BME280;68148;55.328;86.106;2023-12-28T08:39:05;99896.19;;;1.02;100.00
78800;BME280;68148;55.328;86.106;2023-12-28T08:41:30;99898.69;;;0.92;100.00
78800;BME280;68148;55.328;86.106;2023-12-28T08:43:56;99908.72;;;0.97;100.00
78800;BME280;68148;55.328;86.106;2023-12-28T08:46:22;99902.13;;;0.93;100.00
78800;BME280;68148;55.328;86.106;2023-12-28T08:48:48;99910.63;;;0.95;100.00
78800;BME280;68148;55.328;86.106;2023-12-28T08:51:13;99913.47;;;0.92;100.00
78800;BME280;68148;55.328;86.106;2023-12-28T08:53:40;99915.25;;;0.91;100.00
78800;BME280;68148;55.328;86.106;2023-12-28T08:56:20;99922.69;;;0.85;100.00
78800;BME280;68148;55.328;86.106;2023-12-28T08:58:51;99917.47;;;0.85;100.00
78800;BME280;68148;55.328;86.106;2023-12-28T09:01:21;99928.81;;;0.84;100.00
78800;BME280;68148;55.328;86.106;2023-12-28T09:03:49;99936.03;;;0.80;100.00
78800;BME280;68148;55.328;86.106;2023-12-28T09:06:22;99943.72;;;0.82;100.00
78800;BME280;68148;55.328;86.106;2023-12-28T09:08:50;99954.94;;;0.82;100.00
78800;BME280;68148;55.328;86.106;2023-12-28T09:11:17;99947.25;;;0.81;100.00
78800;BME280;68148;55.328;86.106;2023-12-28T09:13:43;99951.97;;;0.87;100.00
78800;BME280;68148;55.328;86.106;2023-12-28T09:16:14;99956.00;;;0.91;100.00
78800;BME280;68148;55.328;86.106;2023-12-28T09:18:40;99957.88;;;0.78;100.00
78800;BME280;68148;55.328;86.106;2023-12-28T09:21:07;99957.16;;;0.75;100.00
78800;BME280;68148;55.328;86.106;2023-12-28T09:23:34;99953.88;;;0.73;100.00
78800;BME280;68148;55.328;86.106;2023-12-28T09:26:02;99970.28;;;0.74;100.00
78800;BME280;68148;55.328;86.106;2023-12-28T09:28:28;99980.91;;;0.71;100.00
78800;BME280;68148;55.328;86.106;2023-12-28T09:30:54;99985.63;;;0.66;100.00
78800;BME280;68148;55.328;86.106;2023-12-28T09:33:20;99986.31;;;0.68;100.00
78800;BME280;68148;55.328;86.106;2023-12-28T09:35:46;99992.69;;;0.64;100.00
78800;BME280;68148;55.328;86.106;2023-12-28T09:38:15;100001.91;;;0.57;100.00
78800;BME280;68148;55.328;86.106;2023-12-28T09:40:42;99995.03;;;0.56;100.00
78800;BME280;68148;55.328;86.106;2023-12-28T09:43:29;100001.66;;;0.60;100.00
78800;BME280;68148;55.328;86.106;2023-12-28T09:45:56;100001.91;;;0.57;100.00
78800;BME280;68148;55.328;86.106;2023-12-28T09:48:22;99997.97;;;0.51;100.00
78800;BME280;68148;55.328;86.106;2023-12-28T09:50:52;100003.66;;;0.45;100.00
78800;BME280;68148;55.328;86.106;2023-12-28T09:53:18;100012.25;;;0.45;100.00
78800;BME280;68148;55.328;86.106;2023-12-28T09:55:45;100016.84;;;0.42;100.00
78800;BME280;68148;55.328;86.106;2023-12-28T09:58:13;100010.13;;;0.39;100.00
78800;BME280;68148;55.328;86.106;2023-12-28T10:00:44;100014.25;;;0.42;100.00
78800;BME280;68148;55.328;86.106;2023-12-28T10:03:12;100016.03;;;0.41;100.00
78800;BME280;68148;55.328;86.106;2023-12-28T10:05:39;100024.63;;;0.42;100.00
78800;BME280;68148;55.328;86.106;2023-12-28T10:08:06;100028.19;;;0.41;100.00
78800;BME280;68148;55.328;86.106;2023-12-28T10:10:32;100022.50;;;0.36;100.00
78800;BME280;68148;55.328;86.106;2023-12-28T10:13:09;100026.97;;;0.34;100.00
78800;BME280;68148;55.328;86.106;2023-12-28T10:15:38;100027.22;;;0.42;100.00
78800;BME280;68148;55.328;86.106;2023-12-28T10:18:04;100033.50;;;0.39;100.00
78800;BME280;68148;55.328;86.106;2023-12-28T10:20:31;100038.34;;;0.44;100.00
78800;BME280;68148;55.328;86.106;2023-12-28T10:23:00;100032.56;;;0.40;100.00
78800;BME280;68148;55.328;86.106;2023-12-28T10:25:32;100032.69;;;0.39;100.00
78800;BME280;68148;55.328;86.106;2023-12-28T10:28:03;100040.13;;;0.43;100.00
78800;BME280;68148;55.328;86.106;2023-12-28T10:30:29;100046.75;;;0.47;100.00
78800;BME280;68148;55.328;86.106;2023-12-28T10:32:56;100047.66;;;0.46;100.00
78800;BME280;68148;55.328;86.106;2023-12-28T10:35:21;100050.16;;;0.48;100.00
78800;BME280;68148;55.328;86.106;2023-12-28T10:37:49;100057.94;;;0.48;100.00
78800;BME280;68148;55.328;86.106;2023-12-28T10:40:17;100053.69;;;0.47;100.00
78800;BME280;68148;55.328;86.106;2023-12-28T10:43:01;100056.19;;;0.48;100.00
78800;BME280;68148;55.328;86.106;2023-12-28T10:45:29;100062.88;;;0.51;100.00
78800;BME280;68148;55.328;86.106;2023-12-28T10:50:40;100063.63;;;0.53;100.00
78800;BME280;68148;55.328;86.106;2023-12-28T10:53:38;100072.13;;;0.55;100.00
78800;BME280;68148;55.328;86.106;2023-12-28T11:01:12;100060.81;;;0.56;98.15
78800;BME280;68148;55.328;86.106;2023-12-28T11:03:43;100065.88;;;0.58;97.80
78800;BME280;68148;55.328;86.106;2023-12-28T11:06:14;100067.53;;;0.59;100.00
78800;BME280;68148;55.328;86.106;2023-12-28T11:08:42;100068.00;;;0.64;100.00
78800;BME280;68148;55.328;86.106;2023-12-28T11:11:09;100076.75;;;0.63;100.00
78800;BME280;68148;55.328;86.106;2023-12-28T11:13:35;100074.38;;;0.60;98.90
78800;BME280;68148;55.328;86.106;2023-12-28T11:16:02;100072.03;;;0.57;100.00
78800;BME280;68148;55.328;86.106;2023-12-28T11:18:29;100068.22;;;0.49;97.97
78800;BME280;68148;55.328;86.106;2023-12-28T11:20:55;100064.66;;;0.50;100.00
78800;BME280;68148;55.328;86.106;2023-12-28T11:23:21;100065.75;;;0.48;97.79
78800;BME280;68148;55.328;86.106;2023-12-28T11:25:47;100080.25;;;0.50;100.00
78800;BME280;68148;55.328;86.106;2023-12-28T11:28:13;100065.97;;;0.45;99.30
78800;BME280;68148;55.328;86.106;2023-12-28T11:30:41;100078.81;;;0.46;98.77
78800;BME280;68148;55.328;86.106;2023-12-28T11:33:07;100080.09;;;0.41;98.84
78800;BME280;68148;55.328;86.106;2023-12-28T11:35:39;100072.31;;;0.41;99.82
78800;BME280;68148;55.328;86.106;2023-12-28T11:38:11;100070.31;;;0.44;100.00
78800;BME280;68148;55.328;86.106;2023-12-28T11:40:44;100083.44;;;0.43;100.00
78800;BME280;68148;55.328;86.106;2023-12-28T11:43:21;100081.75;;;0.42;100.00
78800;BME280;68148;55.328;86.106;2023-12-28T11:45:51;100083.53;;;0.41;100.00
78800;BME280;68148;55.328;86.106;2023-12-28T11:48:27;100095.47;;;0.44;100.00
78800;BME280;68148;55.328;86.106;2023-12-28T11:50:55;100087.88;;;0.41;100.00
78800;BME280;68148;55.328;86.106;2023-12-28T11:53:22;100078.81;;;0.46;100.00
78800;BME280;68148;55.328;86.106;2023-12-28T11:55:47;100083.19;;;0.46;99.22
78800;BME280;68148;55.328;86.106;2023-12-28T11:58:13;100086.25;;;0.40;98.92
78800;BME280;68148;55.328;86.106;2023-12-28T12:00:40;100083.66;;;0.40;100.00
78800;BME280;68148;55.328;86.106;2023-12-28T12:03:05;100095.19;;;0.36;98.17
78800;BME280;68148;55.328;86.106;2023-12-28T12:05:31;100093.41;;;0.36;99.96
78800;BME280;68148;55.328;86.106;2023-12-28T12:07:57;100101.09;;;0.38;100.00
78800;BME280;68148;55.328;86.106;2023-12-28T12:10:23;100096.97;;;0.35;100.00
78800;BME280;68148;55.328;86.106;2023-12-28T12:12:52;100088.56;;;0.32;100.00
78800;BME280;68148;55.328;86.106;2023-12-28T12:15:18;100089.50;;;0.31;100.00
78800;BME280;68148;55.328;86.106;2023-12-28T12:17:44;100087.84;;;0.30;100.00
78800;BME280;68148;55.328;86.106;2023-12-28T12:20:10;100091.16;;;0.32;100.00
78800;BME280;68148;55.328;86.106;2023-12-28T12:22:36;100089.28;;;0.34;100.00
78800;BME280;68148;55.328;86.106;2023-12-28T12:25:03;100096.34;;;0.32;100.00
78800;BME280;68148;55.328;86.106;2023-12-28T12:27:31;100098.34;;;0.28;100.00
78800;BME280;68148;55.328;86.106;2023-12-28T12:29:56;100099.38;;;0.25;100.00
78800;BME280;68148;55.328;86.106;2023-12-28T12:32:23;100109.66;;;0.27;100.00
78800;BME280;68148;55.328;86.106;2023-12-28T12:34:50;100112.34;;;0.25;100.00
78800;BME280;68148;55.328;86.106;2023-12-28T12:37:16;100117.56;;;0.25;100.00
78800;BME280;68148;55.328;86.106;2023-12-28T12:39:42;100114.25;;;0.23;100.00
78800;BME280;68148;55.328;86.106;2023-12-28T12:42:15;100101.66;;;0.30;100.00
78800;BME280;68148;55.328;86.106;2023-12-28T12:44:41;100107.06;;;0.27;100.00
78800;BME280;68148;55.328;86.106;2023-12-28T12:47:07;100109.47;;;0.30;100.00
78800;BME280;68148;55.328;86.106;2023-12-28T12:49:33;100102.94;;;0.24;100.00
78800;BME280;68148;55.328;86.106;2023-12-28T12:51:58;100107.16;;;0.25;100.00